MSC Vienna — A8CI9 — position and weather

sailwx.info

Track history (hours):
 
Tides and Currents Weather Stations Pressure Air Temp Water Temp Dewpoint Dewpoint Depression Visibility Wind Speed Wind Dir Waves Ship Positions

MSC Vienna

Last reported at 2016-Dec-03 12:28 UTC. Time now 2016-Dec-03 13:43 UTC.
Position N 39°25' W 000°17'.

Length 260.1 m; beam 32.2 m; draft 12 m.

Type: Ship (hazmat cat A). MMSI: 636090654.

Date/timePositionNaut miles runAvg speedWind from/ knotsBaromVisibWave heightAir tempDewpointWater temp
2016-Dec-03 12:28N 39°25' W 000°17'2 2.2
2016-Dec-03 11:32N 39°27' W 000°19'0 0.0
2016-Dec-03 10:32N 39°27' W 000°19'0 0.0
2016-Dec-03 09:32N 39°27' W 000°19'0 0.0
2016-Dec-03 08:32N 39°27' W 000°19'0 0.0
2016-Dec-03 07:32N 39°27' W 000°19'0 0.0
2016-Dec-03 06:32N 39°27' W 000°19'0 0.0
2016-Dec-03 05:32N 39°27' W 000°19'0 0.0
2016-Dec-03 04:32N 39°27' W 000°19'0 0.0
2016-Dec-03 03:32N 39°27' W 000°19'0 0.0
2016-Dec-03 02:32N 39°27' W 000°19'0 0.0
2016-Dec-03 01:32N 39°27' W 000°19'0 0.0
2016-Dec-03 00:29N 39°27' W 000°19'0 0.0
2016-Dec-02 23:29N 39°27' W 000°19'0 0.0
2016-Dec-02 22:32N 39°27' W 000°19'0 0.0
2016-Dec-02 21:32N 39°27' W 000°19'0 0.0
2016-Dec-02 20:32N 39°27' W 000°19'0 0.0
2016-Dec-02 19:32N 39°27' W 000°19'0 0.0
2016-Dec-02 18:32N 39°27' W 000°19'0 0.0
2016-Dec-02 17:29N 39°27' W 000°19'0 0.0
2016-Dec-02 16:32N 39°27' W 000°19'0 0.0
2016-Dec-02 15:32N 39°27' W 000°19'0 0.0
2016-Dec-02 14:32N 39°27' W 000°19'0 0.0
2016-Dec-02 13:32N 39°27' W 000°19'0 0.0
2016-Dec-02 12:32N 39°27' W 000°19'0 0.0
2016-Dec-02 11:32N 39°27' W 000°19'0 0.0
2016-Dec-02 10:32N 39°27' W 000°19'0 0.0
2016-Dec-02 09:32N 39°27' W 000°19'0 0.0
2016-Dec-02 08:32N 39°27' W 000°19'0 0.0
2016-Dec-02 07:32N 39°27' W 000°19'0 0.0
2016-Dec-02 06:32N 39°27' W 000°19'0 0.0
2016-Dec-02 05:32N 39°27' W 000°19'0 0.0
2016-Dec-02 04:29N 39°27' W 000°19'0 0.0
2016-Dec-02 03:29N 39°27' W 000°19'0 0.0
2016-Dec-02 02:32N 39°27' W 000°19'0 0.0
2016-Dec-02 01:32N 39°27' W 000°19'3 2.8
2016-Dec-02 00:33N 39°25' W 000°16'1 1.4
2016-Dec-01 23:33N 39°24' W 000°15'0 0.1
2016-Dec-01 21:14N 39°24' W 000°15'0 0.0
2016-Nov-30 02:20N 39°24' W 000°15'0 0.0
2016-Nov-30 01:08N 39°24' W 000°15'0 0.0
2016-Nov-30 00:26N 39°24' W 000°15'0 0.0
2016-Nov-29 20:14N 39°24' W 000°15'1 1.0
2016-Nov-29 19:32N 39°24' W 000°14'9312.7
2016-Nov-29 12:14N 40°18' E 001°23'912.8
2016-Nov-29 11:33N 40°26' E 001°29'1212.3
2016-Nov-29 10:33N 40°36' E 001°38'1212.2
2016-Nov-29 09:33N 40°47' E 001°46'1212.2
2016-Nov-29 08:33N 40°57' E 001°55'1612.6
2016-Nov-29 07:19N 41°11' E 002°05'327 7.8
2016-Nov-27 13:33N 43°59' E 008°26'1212.4
2016-Nov-27 12:34N 44°09' E 008°35'1212.0
2016-Nov-27 11:33N 44°20' E 008°42'6 5.8
2016-Nov-27 10:32N 44°25' E 008°47'0 0.0
2016-Nov-27 09:29N 44°25' E 008°47'0 0.0
2016-Nov-27 08:29N 44°25' E 008°47'0 0.0
2016-Nov-27 06:26N 44°25' E 008°47'0 0.0
2016-Nov-27 05:32N 44°25' E 008°47'0 0.0
2016-Nov-27 03:20N 44°25' E 008°47'0 0.0
2016-Nov-27 02:32N 44°25' E 008°47'0 0.0
2016-Nov-27 01:32N 44°25' E 008°47'0 0.0
2016-Nov-26 23:29N 44°25' E 008°47'0 0.0
2016-Nov-26 22:32N 44°25' E 008°47'0 0.0
2016-Nov-26 21:32N 44°25' E 008°47'0 0.0
2016-Nov-26 20:26N 44°25' E 008°47'0 0.0
2016-Nov-26 19:32N 44°25' E 008°47'0 0.0
2016-Nov-26 18:29N 44°25' E 008°47'0 0.0
2016-Nov-26 17:32N 44°25' E 008°47'0 0.0
2016-Nov-26 15:23N 44°25' E 008°47'0 0.0
2016-Nov-26 13:20N 44°25' E 008°47'0 0.0
2016-Nov-26 12:11N 44°25' E 008°47'0 0.0
2016-Nov-26 11:14N 44°25' E 008°47'0 0.0
2016-Nov-26 10:14N 44°25' E 008°47'0 0.0
2016-Nov-26 08:32N 44°25' E 008°47'2 1.7
2016-Nov-26 07:22N 44°24' E 008°45'0 0.6
2016-Nov-26 06:33N 44°24' E 008°46'0 0.1
2016-Nov-26 04:33N 44°24' E 008°46'0 0.0
2016-Nov-26 02:27N 44°24' E 008°46'0 0.0
2016-Nov-26 00:33N 44°24' E 008°46'0 0.0
2016-Nov-25 23:18N 44°24' E 008°46'0 0.0
2016-Nov-25 20:24N 44°24' E 008°46'2 1.8
2016-Nov-25 19:33N 44°23' E 008°45'9 9.5
2016-Nov-25 18:33N 44°14' E 008°51'1312.6
2016-Nov-25 17:33N 44°05' E 009°02'1212.3
2016-Nov-25 16:33N 43°56' E 009°14'1312.7
2016-Nov-25 15:33N 43°47' E 009°27'1312.8
2016-Nov-25 14:33N 43°38' E 009°40'1212.4
2016-Nov-25 13:33N 43°31' E 009°54'1212.5
2016-Nov-25 12:33N 43°30' E 010°11'7 7.0
2016-Nov-25 11:33N 43°34' E 010°18'0 0.1
2016-Nov-25 10:32N 43°34' E 010°18'0 0.0
2016-Nov-25 09:33N 43°34' E 010°18'0 0.0
2016-Nov-25 08:33N 43°34' E 010°18'0 0.0
2016-Nov-25 07:33N 43°34' E 010°18'0 0.0
2016-Nov-25 06:33N 43°34' E 010°18'0 0.0
2016-Nov-25 05:33N 43°34' E 010°18'0 0.0
2016-Nov-25 04:32N 43°34' E 010°18'0 0.0
2016-Nov-25 03:33N 43°34' E 010°18'0 0.0
2016-Nov-25 02:32N 43°34' E 010°18'0 0.0
2016-Nov-25 01:32N 43°34' E 010°18'0 0.0
2016-Nov-25 00:32N 43°34' E 010°18'0 0.0
2016-Nov-24 23:32N 43°34' E 010°18'0 0.0
2016-Nov-24 22:32N 43°34' E 010°18'0 0.0
2016-Nov-24 21:33N 43°34' E 010°18'0 0.0
2016-Nov-24 20:33N 43°34' E 010°18'0 0.0
2016-Nov-24 19:32N 43°34' E 010°18'0 0.0
2016-Nov-24 18:30N 43°34' E 010°18'0 0.0
2016-Nov-24 17:33N 43°34' E 010°18'0 0.0
2016-Nov-24 16:30N 43°34' E 010°18'0 0.0
2016-Nov-24 15:33N 43°34' E 010°18'0 0.0
2016-Nov-24 14:29N 43°34' E 010°18'0 0.0
2016-Nov-24 13:24N 43°34' E 010°18'0 0.0
2016-Nov-24 12:33N 43°34' E 010°18'0 0.0
2016-Nov-24 11:32N 43°34' E 010°18'0 0.0
2016-Nov-24 10:32N 43°34' E 010°18'2 1.7
2016-Nov-24 09:33N 43°33' E 010°17'5 5.1
2016-Nov-24 08:33N 43°29' E 010°13'1212.4
2016-Nov-24 07:33N 43°17' E 010°10'1313.4
2016-Nov-24 06:33N 43°04' E 010°06'  
Track history (hours):
 
Tides and Currents Weather Stations Pressure Air Temp Water Temp Dewpoint Dewpoint Depression Visibility Wind Speed Wind Dir Waves Ship Positions

MSC Vienna

Last reported at 2016-Dec-03 12:28 UTC. Time now 2016-Dec-03 13:43 UTC.
Position N 39°25' W 000°17'.

Length 260.1 m; beam 32.2 m; draft 12 m.

Type: Ship (hazmat cat A). MMSI: 636090654.

Date/timePositionNaut miles runAvg speedWind from/ knotsBaromVisibWave heightAir tempDewpointWater temp
2016-Dec-03 12:28N 39°25' W 000°17'2 2.2
2016-Dec-03 11:32N 39°27' W 000°19'0 0.0
2016-Dec-03 10:32N 39°27' W 000°19'0 0.0
2016-Dec-03 09:32N 39°27' W 000°19'0 0.0
2016-Dec-03 08:32N 39°27' W 000°19'0 0.0
2016-Dec-03 07:32N 39°27' W 000°19'0 0.0
2016-Dec-03 06:32N 39°27' W 000°19'0 0.0
2016-Dec-03 05:32N 39°27' W 000°19'0 0.0
2016-Dec-03 04:32N 39°27' W 000°19'0 0.0
2016-Dec-03 03:32N 39°27' W 000°19'0 0.0
2016-Dec-03 02:32N 39°27' W 000°19'0 0.0
2016-Dec-03 01:32N 39°27' W 000°19'0 0.0
2016-Dec-03 00:29N 39°27' W 000°19'0 0.0
2016-Dec-02 23:29N 39°27' W 000°19'0 0.0
2016-Dec-02 22:32N 39°27' W 000°19'0 0.0
2016-Dec-02 21:32N 39°27' W 000°19'0 0.0
2016-Dec-02 20:32N 39°27' W 000°19'0 0.0
2016-Dec-02 19:32N 39°27' W 000°19'0 0.0
2016-Dec-02 18:32N 39°27' W 000°19'0 0.0
2016-Dec-02 17:29N 39°27' W 000°19'0 0.0
2016-Dec-02 16:32N 39°27' W 000°19'0 0.0
2016-Dec-02 15:32N 39°27' W 000°19'0 0.0
2016-Dec-02 14:32N 39°27' W 000°19'0 0.0
2016-Dec-02 13:32N 39°27' W 000°19'0 0.0
2016-Dec-02 12:32N 39°27' W 000°19'0 0.0
2016-Dec-02 11:32N 39°27' W 000°19'0 0.0
2016-Dec-02 10:32N 39°27' W 000°19'0 0.0
2016-Dec-02 09:32N 39°27' W 000°19'0 0.0
2016-Dec-02 08:32N 39°27' W 000°19'0 0.0
2016-Dec-02 07:32N 39°27' W 000°19'0 0.0
2016-Dec-02 06:32N 39°27' W 000°19'0 0.0
2016-Dec-02 05:32N 39°27' W 000°19'0 0.0
2016-Dec-02 04:29N 39°27' W 000°19'0 0.0
2016-Dec-02 03:29N 39°27' W 000°19'0 0.0
2016-Dec-02 02:32N 39°27' W 000°19'0 0.0
2016-Dec-02 01:32N 39°27' W 000°19'3 2.8
2016-Dec-02 00:33N 39°25' W 000°16'1 1.4
2016-Dec-01 23:33N 39°24' W 000°15'0 0.1
2016-Dec-01 21:14N 39°24' W 000°15'0 0.0
2016-Nov-30 02:20N 39°24' W 000°15'0 0.0
2016-Nov-30 01:08N 39°24' W 000°15'0 0.0
2016-Nov-30 00:26N 39°24' W 000°15'0 0.0
2016-Nov-29 20:14N 39°24' W 000°15'1 1.0
2016-Nov-29 19:32N 39°24' W 000°14'9312.7
2016-Nov-29 12:14N 40°18' E 001°23'912.8
2016-Nov-29 11:33N 40°26' E 001°29'1212.3
2016-Nov-29 10:33N 40°36' E 001°38'1212.2
2016-Nov-29 09:33N 40°47' E 001°46'1212.2
2016-Nov-29 08:33N 40°57' E 001°55'1612.6
2016-Nov-29 07:19N 41°11' E 002°05'327 7.8
2016-Nov-27 13:33N 43°59' E 008°26'1212.4
2016-Nov-27 12:34N 44°09' E 008°35'1212.0
2016-Nov-27 11:33N 44°20' E 008°42'6 5.8
2016-Nov-27 10:32N 44°25' E 008°47'0 0.0
2016-Nov-27 09:29N 44°25' E 008°47'0 0.0
2016-Nov-27 08:29N 44°25' E 008°47'0 0.0
2016-Nov-27 06:26N 44°25' E 008°47'0 0.0
2016-Nov-27 05:32N 44°25' E 008°47'0 0.0
2016-Nov-27 03:20N 44°25' E 008°47'0 0.0
2016-Nov-27 02:32N 44°25' E 008°47'0 0.0
2016-Nov-27 01:32N 44°25' E 008°47'0 0.0
2016-Nov-26 23:29N 44°25' E 008°47'0 0.0
2016-Nov-26 22:32N 44°25' E 008°47'0 0.0
2016-Nov-26 21:32N 44°25' E 008°47'0 0.0
2016-Nov-26 20:26N 44°25' E 008°47'0 0.0
2016-Nov-26 19:32N 44°25' E 008°47'0 0.0
2016-Nov-26 18:29N 44°25' E 008°47'0 0.0
2016-Nov-26 17:32N 44°25' E 008°47'0 0.0
2016-Nov-26 15:23N 44°25' E 008°47'0 0.0
2016-Nov-26 13:20N 44°25' E 008°47'0 0.0
2016-Nov-26 12:11N 44°25' E 008°47'0 0.0
2016-Nov-26 11:14N 44°25' E 008°47'0 0.0
2016-Nov-26 10:14N 44°25' E 008°47'0 0.0
2016-Nov-26 08:32N 44°25' E 008°47'2 1.7
2016-Nov-26 07:22N 44°24' E 008°45'0 0.6
2016-Nov-26 06:33N 44°24' E 008°46'0 0.1
2016-Nov-26 04:33N 44°24' E 008°46'0 0.0
2016-Nov-26 02:27N 44°24' E 008°46'0 0.0
2016-Nov-26 00:33N 44°24' E 008°46'0 0.0
2016-Nov-25 23:18N 44°24' E 008°46'0 0.0
2016-Nov-25 20:24N 44°24' E 008°46'2 1.8
2016-Nov-25 19:33N 44°23' E 008°45'9 9.5
2016-Nov-25 18:33N 44°14' E 008°51'1312.6
2016-Nov-25 17:33N 44°05' E 009°02'1212.3
2016-Nov-25 16:33N 43°56' E 009°14'1312.7
2016-Nov-25 15:33N 43°47' E 009°27'1312.8
2016-Nov-25 14:33N 43°38' E 009°40'1212.4
2016-Nov-25 13:33N 43°31' E 009°54'1212.5
2016-Nov-25 12:33N 43°30' E 010°11'7 7.0
2016-Nov-25 11:33N 43°34' E 010°18'0 0.1
2016-Nov-25 10:32N 43°34' E 010°18'0 0.0
2016-Nov-25 09:33N 43°34' E 010°18'0 0.0
2016-Nov-25 08:33N 43°34' E 010°18'0 0.0
2016-Nov-25 07:33N 43°34' E 010°18'0 0.0
2016-Nov-25 06:33N 43°34' E 010°18'0 0.0
2016-Nov-25 05:33N 43°34' E 010°18'0 0.0
2016-Nov-25 04:32N 43°34' E 010°18'0 0.0
2016-Nov-25 03:33N 43°34' E 010°18'0 0.0
2016-Nov-25 02:32N 43°34' E 010°18'0 0.0
2016-Nov-25 01:32N 43°34' E 010°18'0 0.0
2016-Nov-25 00:32N 43°34' E 010°18'0 0.0
2016-Nov-24 23:32N 43°34' E 010°18'0 0.0
2016-Nov-24 22:32N 43°34' E 010°18'0 0.0
2016-Nov-24 21:33N 43°34' E 010°18'0 0.0
2016-Nov-24 20:33N 43°34' E 010°18'0 0.0
2016-Nov-24 19:32N 43°34' E 010°18'0 0.0
2016-Nov-24 18:30N 43°34' E 010°18'0 0.0
2016-Nov-24 17:33N 43°34' E 010°18'0 0.0
2016-Nov-24 16:30N 43°34' E 010°18'0 0.0
2016-Nov-24 15:33N 43°34' E 010°18'0 0.0
2016-Nov-24 14:29N 43°34' E 010°18'0 0.0
2016-Nov-24 13:24N 43°34' E 010°18'0 0.0
2016-Nov-24 12:33N 43°34' E 010°18'0 0.0
2016-Nov-24 11:32N 43°34' E 010°18'0 0.0
2016-Nov-24 10:32N 43°34' E 010°18'2 1.7
2016-Nov-24 09:33N 43°33' E 010°17'5 5.1
2016-Nov-24 08:33N 43°29' E 010°13'1212.4
2016-Nov-24 07:33N 43°17' E 010°10'1313.4
2016-Nov-24 06:33N 43°04' E 010°06'  

Dump ship's entire track history